Terminal Aerodrome Forecast
Issued by NWS

Current Version | Previous Version | Graphics & Text | Print | Product List | Glossary On
Versions: 1 2 3 4 5 6 7 8 9 10 11 12 13 14 15 16 17 18 19 20 21 22 23
000
FTUS41 KILN 291700
TAFLCK
TAF
KLCK 291740Z 2918/3018 14008KT P6SM -RA SCT015 OVC060
      TEMPO 2918/2921 5SM RA BR BKN008 OVC015
     FM300000 21012KT P6SM VCSH BKN035
     FM300400 23010KT P6SM BKN035
     FM301400 23010KT P6SM VCSH BKN040=

USA.gov is the U.S. government's official web portal to all federal, state and local government web resources and services.